createdAt,value
2019-03-19T00:01:02.554Z,5.77
2019-03-19T00:03:33.841Z,5.80
2019-03-19T00:06:05.352Z,5.37
2019-03-19T00:08:36.629Z,6.00
2019-03-19T00:11:07.796Z,5.23
2019-03-19T00:13:39.129Z,5.23
2019-03-19T00:16:10.125Z,4.87
2019-03-19T00:18:41.413Z,5.50
2019-03-19T00:21:12.535Z,5.50
2019-03-19T00:23:43.470Z,4.97
2019-03-19T00:26:14.424Z,5.20
2019-03-19T00:28:45.751Z,5.50
2019-03-19T00:31:17.002Z,5.87
2019-03-19T00:33:48.001Z,5.40
2019-03-19T00:36:18.940Z,6.00
2019-03-19T00:38:51.039Z,6.30
2019-03-19T00:41:22.089Z,6.87
2019-03-19T00:43:53.422Z,6.70
2019-03-19T00:46:24.573Z,6.57
2019-03-19T00:48:55.890Z,6.77
2019-03-19T00:51:26.845Z,6.10
2019-03-19T00:53:58.239Z,6.80
2019-03-19T00:56:29.283Z,7.00
2019-03-19T00:59:00.600Z,6.80
2019-03-19T01:01:31.801Z,6.60
2019-03-19T01:04:02.879Z,6.77
2019-03-19T01:06:33.900Z,6.23
2019-03-19T01:09:06.111Z,6.37
2019-03-19T01:11:37.349Z,6.67
2019-03-19T01:14:08.672Z,6.47
2019-03-19T01:16:39.917Z,6.27
2019-03-19T01:19:11.222Z,6.20
2019-03-19T01:21:42.907Z,6.08
2019-03-19T01:24:14.427Z,5.95
2019-03-19T01:26:46.075Z,5.92
2019-03-19T01:29:17.310Z,6.10
2019-03-19T01:31:48.804Z,5.53
2019-03-19T01:34:20.250Z,5.78
2019-03-19T01:36:51.452Z,5.58
2019-03-19T01:39:23.036Z,5.47
2019-03-19T01:41:54.571Z,5.55
2019-03-19T01:44:25.784Z,5.20
2019-03-19T01:46:57.277Z,5.70
2019-03-19T01:49:28.939Z,5.35
2019-03-19T01:52:00.414Z,5.80
2019-03-19T01:54:32.071Z,5.90
2019-03-19T01:57:03.599Z,5.90
2019-03-19T01:59:35.120Z,6.10
2019-03-19T02:02:06.402Z,6.15
2019-03-19T02:04:38.040Z,6.22
2019-03-19T02:07:09.839Z,5.72
2019-03-19T02:09:41.554Z,6.78
2019-03-19T02:12:13.309Z,5.85
2019-03-19T02:14:45.044Z,5.42
2019-03-19T02:17:16.238Z,5.83
2019-03-19T02:19:47.805Z,6.47
2019-03-19T02:22:19.486Z,6.17
2019-03-19T02:24:52.446Z,5.42
2019-03-19T02:27:24.062Z,5.47
2019-03-19T02:29:56.043Z,5.72
2019-03-19T02:32:27.582Z,5.72
2019-03-19T02:34:59.158Z,5.22
2019-03-19T02:37:30.884Z,5.15
2019-03-19T02:40:02.793Z,5.70
2019-03-19T02:42:34.314Z,5.05
2019-03-19T02:45:06.409Z,5.28
2019-03-19T02:47:38.613Z,5.17
2019-03-19T02:50:10.614Z,5.35
2019-03-19T02:52:42.309Z,5.28
2019-03-19T02:55:13.917Z,5.53
2019-03-19T02:57:45.673Z,5.12
2019-03-19T03:00:17.094Z,5.62
2019-03-19T03:02:48.798Z,5.08
2019-03-19T03:05:20.884Z,5.03
2019-03-19T03:07:52.421Z,5.62
2019-03-19T03:10:24.084Z,4.55
2019-03-19T03:12:55.345Z,5.20
2019-03-19T03:15:26.847Z,4.90
2019-03-19T03:17:58.441Z,5.05
2019-03-19T03:20:29.680Z,5.35
2019-03-19T03:23:01.060Z,5.92
2019-03-19T03:25:32.589Z,5.67
2019-03-19T03:28:04.134Z,5.15
2019-03-19T03:30:35.875Z,5.67
2019-03-19T03:33:07.322Z,5.37
2019-03-19T03:35:38.930Z,5.47
2019-03-19T03:38:10.195Z,5.30
2019-03-19T03:40:41.638Z,5.08
2019-03-19T03:43:13.004Z,5.37
2019-03-19T03:45:45.439Z,6.00
2019-03-19T03:48:16.781Z,5.58
2019-03-19T03:50:48.491Z,5.60
2019-03-19T03:53:20.109Z,5.97
2019-03-19T03:55:51.917Z,5.40
2019-03-19T03:58:23.565Z,5.95
2019-03-19T04:00:54.989Z,6.10
2019-03-19T04:03:26.484Z,5.67
2019-03-19T04:05:58.333Z,5.37
2019-03-19T04:08:30.138Z,5.80
2019-03-19T04:11:01.371Z,5.90
2019-03-19T04:13:33.052Z,5.95
2019-03-19T04:16:04.742Z,5.80
2019-03-19T04:18:36.331Z,6.10
2019-03-19T04:21:07.619Z,5.50
2019-03-19T04:23:38.962Z,5.75
2019-03-19T04:26:10.474Z,6.65
2019-03-19T04:28:41.802Z,5.95
2019-03-19T04:31:13.278Z,5.62
2019-03-19T04:33:44.913Z,6.00
2019-03-19T04:36:16.095Z,6.17
2019-03-19T04:38:47.433Z,6.15
2019-03-19T04:41:18.843Z,6.10
2019-03-19T04:43:50.436Z,6.05
2019-03-19T04:46:21.714Z,7.10
2019-03-19T04:48:53.338Z,6.40
2019-03-19T04:51:25.038Z,5.72
2019-03-19T04:53:56.559Z,6.62
2019-03-19T04:56:27.755Z,6.70
2019-03-19T04:58:59.534Z,6.70
2019-03-19T05:01:30.760Z,6.60
2019-03-19T05:04:02.252Z,6.55
2019-03-19T05:06:33.527Z,6.28
2019-03-19T05:09:06.573Z,6.85
2019-03-19T05:11:38.263Z,6.47
2019-03-19T05:14:09.551Z,6.75
2019-03-19T05:16:40.775Z,6.75
2019-03-19T05:19:12.170Z,6.75
2019-03-19T05:21:43.425Z,6.30
2019-03-19T05:24:14.777Z,6.58
2019-03-19T05:26:46.114Z,7.25
2019-03-19T05:29:17.677Z,6.90
2019-03-19T05:31:49.217Z,7.60
2019-03-19T05:34:20.586Z,6.70
2019-03-19T05:36:52.128Z,6.87
2019-03-19T05:39:23.455Z,6.80
2019-03-19T05:41:54.851Z,6.85
2019-03-19T05:44:26.335Z,6.50
2019-03-19T05:46:57.875Z,6.15
2019-03-19T05:49:29.196Z,6.25
2019-03-19T05:52:00.445Z,6.67
2019-03-19T05:54:33.079Z,6.53
2019-03-19T05:57:04.674Z,6.97
2019-03-19T05:59:36.230Z,6.20
2019-03-19T06:02:07.823Z,6.45
2019-03-19T06:04:39.351Z,6.97
2019-03-19T06:07:11.444Z,8.08
2019-03-19T06:09:43.158Z,6.40
2019-03-19T06:12:14.684Z,5.80
2019-03-19T06:14:46.280Z,6.50
2019-03-19T06:17:17.574Z,7.10
2019-03-19T06:19:49.301Z,6.78
2019-03-19T06:22:21.040Z,6.80
2019-03-19T06:24:52.669Z,6.05
2019-03-19T06:27:23.905Z,6.90
2019-03-19T06:29:55.582Z,6.70
2019-03-19T06:32:27.033Z,7.12
2019-03-19T06:34:58.586Z,6.75
2019-03-19T06:37:29.597Z,6.93
2019-03-19T06:40:01.057Z,6.85
2019-03-19T06:42:32.170Z,13.20
2019-03-19T06:45:03.434Z,6.43
2019-03-19T06:47:35.715Z,6.40
2019-03-19T06:50:07.567Z,6.43
2019-03-19T06:52:39.005Z,6.27
2019-03-19T06:55:11.837Z,6.37
2019-03-19T06:57:43.264Z,6.90
2019-03-19T07:00:17.097Z,6.33
2019-03-19T07:02:50.247Z,6.30
2019-03-19T07:05:21.747Z,6.53
2019-03-19T07:07:53.195Z,6.13
2019-03-19T07:10:24.358Z,6.93
2019-03-19T07:12:55.772Z,7.40
2019-03-19T07:15:27.278Z,6.63
2019-03-19T07:17:58.526Z,7.17
2019-03-19T07:20:29.908Z,6.17
2019-03-19T07:23:01.087Z,6.47
2019-03-19T07:25:32.143Z,6.40
2019-03-19T07:28:03.232Z,7.43
2019-03-19T07:30:34.475Z,6.97
2019-03-19T07:33:05.598Z,6.53
2019-03-19T07:35:36.927Z,7.07
2019-03-19T07:38:07.908Z,6.60
2019-03-19T07:40:39.233Z,6.80
2019-03-19T07:43:10.571Z,7.30
2019-03-19T07:45:42.076Z,6.70
2019-03-19T07:48:13.335Z,6.37
2019-03-19T07:50:44.534Z,6.17
2019-03-19T07:53:15.910Z,6.70
2019-03-19T07:55:47.338Z,6.67
2019-03-19T07:58:18.413Z,5.77
2019-03-19T08:00:49.529Z,5.93
2019-03-19T08:03:20.714Z,6.13
2019-03-19T08:05:51.916Z,6.47
2019-03-19T08:08:24.299Z,6.07
2019-03-19T08:10:55.541Z,6.10
2019-03-19T08:13:26.903Z,7.23
2019-03-19T08:15:58.102Z,6.40
2019-03-19T08:18:29.528Z,6.60
2019-03-19T08:21:00.895Z,5.20
2019-03-19T08:23:32.232Z,5.10
2019-03-19T08:26:03.523Z,5.10
2019-03-19T08:28:34.597Z,5.23
2019-03-19T08:31:05.926Z,5.20
2019-03-19T08:33:37.119Z,5.33
2019-03-19T08:36:09.604Z,5.20
2019-03-19T08:38:41.026Z,4.83
2019-03-19T08:41:12.255Z,3.93
2019-03-19T08:43:43.183Z,4.80
2019-03-19T08:46:14.611Z,4.23
2019-03-19T08:48:45.964Z,4.63
2019-03-19T08:51:17.151Z,4.20
2019-03-19T08:53:48.723Z,4.93
2019-03-19T08:56:19.836Z,4.30
2019-03-19T08:58:51.015Z,4.67
2019-03-19T09:01:22.427Z,4.67
2019-03-19T09:03:53.465Z,4.87
2019-03-19T09:06:24.900Z,3.97
2019-03-19T09:08:55.990Z,4.53
2019-03-19T09:11:27.187Z,6.03
2019-03-19T09:13:58.517Z,4.80
2019-03-19T09:16:29.719Z,4.10
2019-03-19T09:19:00.989Z,4.40
2019-03-19T09:21:33.465Z,4.97
2019-03-19T09:24:04.766Z,5.47
2019-03-19T09:26:35.994Z,4.70
2019-03-19T09:29:16.301Z,5.00
2019-03-19T09:31:39.802Z,4.77
2019-03-19T09:34:10.935Z,4.23
2019-03-19T09:36:41.953Z,4.53
2019-03-19T09:39:13.308Z,4.07
2019-03-19T09:41:44.719Z,4.73
2019-03-19T09:44:16.296Z,6.43
2019-03-19T09:46:47.656Z,6.37
2019-03-19T09:49:21.093Z,4.53
2019-03-19T09:51:52.100Z,5.20
2019-03-19T09:54:23.451Z,4.30
2019-03-19T09:56:54.769Z,4.93
2019-03-19T09:59:27.331Z,5.07
2019-03-19T10:01:59.875Z,5.10
2019-03-19T10:04:31.150Z,4.90
2019-03-19T10:07:06.243Z,4.70
2019-03-19T10:09:35.600Z,4.30
2019-03-19T10:12:07.041Z,4.83
2019-03-19T10:14:38.536Z,5.23
2019-03-19T10:17:10.196Z,4.73
2019-03-19T10:19:41.393Z,4.53
2019-03-19T10:22:15.122Z,4.90
2019-03-19T10:24:46.123Z,4.80
2019-03-19T10:27:19.620Z,4.30
2019-03-19T10:29:51.164Z,5.07
2019-03-19T10:32:22.276Z,3.83
2019-03-19T10:34:53.622Z,4.70
2019-03-19T10:37:24.774Z,4.57
2019-03-19T10:39:55.970Z,4.70
2019-03-19T10:42:27.414Z,4.57
2019-03-19T10:44:58.668Z,4.87
2019-03-19T10:47:30.107Z,5.13
2019-03-19T10:50:01.553Z,4.33
2019-03-19T10:52:33.735Z,4.27
2019-03-19T10:55:05.215Z,3.73
2019-03-19T10:57:36.588Z,5.07
2019-03-19T11:00:12.632Z,9.20
2019-03-19T11:02:43.865Z,5.17
2019-03-19T11:05:15.303Z,4.27
2019-03-19T11:07:46.570Z,4.73
2019-03-19T11:10:17.768Z,4.60
2019-03-19T11:12:49.293Z,3.70
2019-03-19T11:15:20.411Z,4.90
2019-03-19T11:17:51.738Z,3.97
2019-03-19T11:20:23.089Z,4.20
2019-03-19T11:22:54.207Z,3.97
2019-03-19T11:25:25.458Z,4.17
2019-03-19T11:27:56.827Z,5.47
2019-03-19T11:30:28.004Z,3.93
2019-03-19T11:32:59.328Z,7.70
2019-03-19T11:35:30.611Z,4.07
2019-03-19T11:38:01.847Z,3.80
2019-03-19T11:40:32.740Z,3.60
2019-03-19T11:43:03.883Z,4.30
2019-03-19T11:45:34.979Z,3.63
2019-03-19T11:48:06.730Z,3.40
2019-03-19T11:50:37.810Z,4.33
2019-03-19T11:53:08.952Z,3.70
2019-03-19T11:55:39.972Z,3.80
2019-03-19T11:58:11.105Z,4.40
2019-03-19T12:00:44.691Z,4.00
2019-03-19T12:03:16.607Z,4.00
2019-03-19T12:05:47.726Z,4.50
2019-03-19T12:08:18.796Z,4.43
2019-03-19T12:10:49.789Z,4.47
2019-03-19T12:13:20.905Z,4.10
2019-03-19T12:15:52.127Z,4.33
2019-03-19T12:18:23.216Z,4.13
2019-03-19T12:20:54.446Z,3.70
2019-03-19T12:23:25.528Z,4.10
2019-03-19T12:25:56.651Z,4.23
2019-03-19T12:28:27.744Z,3.80
2019-03-19T12:30:58.946Z,4.63
2019-03-19T12:33:40.095Z,3.90
2019-03-19T12:36:03.302Z,4.50
2019-03-19T12:38:34.480Z,4.00
2019-03-19T12:41:05.807Z,4.10
2019-03-19T12:43:37.077Z,4.00
2019-03-19T12:46:08.196Z,4.50
2019-03-19T12:48:39.714Z,4.60
2019-03-19T12:51:10.873Z,4.17
2019-03-19T12:53:42.002Z,4.10
2019-03-19T12:56:14.423Z,3.93
2019-03-19T12:58:45.686Z,4.27
2019-03-19T13:01:17.686Z,4.77
2019-03-19T13:03:49.673Z,4.30
2019-03-19T13:06:20.887Z,4.33
2019-03-19T13:08:52.155Z,5.67
2019-03-19T13:11:23.386Z,4.43
2019-03-19T13:13:54.563Z,4.23
2019-03-19T13:16:25.600Z,4.20
2019-03-19T13:18:56.590Z,5.87
2019-03-19T13:21:27.721Z,4.67
2019-03-19T13:23:58.657Z,4.10
2019-03-19T13:26:29.609Z,4.40
2019-03-19T13:29:00.980Z,4.90
2019-03-19T13:31:32.430Z,4.93
2019-03-19T13:34:03.526Z,4.40
2019-03-19T13:36:34.648Z,4.90
2019-03-19T13:39:08.283Z,5.50
2019-03-19T13:41:39.263Z,4.53
2019-03-19T13:44:11.353Z,4.40
2019-03-19T13:46:42.456Z,4.20
2019-03-19T13:49:13.419Z,4.07
2019-03-19T13:51:44.874Z,3.90
2019-03-19T13:54:16.714Z,5.40
2019-03-19T13:56:51.086Z,4.37
2019-03-19T13:59:22.198Z,4.43
2019-03-19T14:01:53.515Z,4.37
2019-03-19T14:04:31.681Z,4.70
2019-03-19T14:07:22.893Z,4.40
2019-03-19T14:09:55.171Z,4.33
2019-03-19T14:12:40.691Z,4.47
2019-03-19T14:15:37.277Z,4.40
2019-03-19T14:19:09.266Z,4.33
2019-03-19T14:22:36.082Z,4.70
2019-03-19T14:25:34.965Z,4.70
2019-03-19T14:28:11.823Z,4.27
2019-03-19T14:31:23.443Z,4.17
2019-03-19T14:34:19.939Z,4.87
2019-03-19T14:37:57.954Z,3.90
2019-03-19T14:40:36.476Z,3.70
2019-03-19T14:43:09.722Z,3.83
2019-03-19T14:45:41.026Z,3.70
2019-03-19T14:48:12.499Z,4.10
2019-03-19T14:50:43.430Z,4.07
2019-03-19T14:53:14.826Z,4.63
2019-03-19T14:55:46.068Z,3.80
2019-03-19T14:58:17.275Z,4.07
2019-03-19T15:00:48.265Z,4.00
2019-03-19T15:03:19.592Z,4.40
2019-03-19T15:05:50.962Z,4.00
2019-03-19T15:08:22.484Z,4.27
2019-03-19T15:10:53.973Z,4.57
2019-03-19T15:13:25.151Z,4.20
2019-03-19T15:16:37.589Z,4.17
2019-03-19T15:19:53.711Z,3.90
2019-03-19T15:22:56.559Z,4.13
2019-03-19T15:25:34.655Z,4.03
2019-03-19T15:28:06.262Z,4.17
2019-03-19T15:30:37.594Z,4.73
2019-03-19T15:33:33.834Z,4.90
2019-03-19T15:36:05.034Z,4.43
2019-03-19T15:38:36.438Z,4.73
2019-03-19T15:41:07.827Z,5.17
2019-03-19T15:43:40.967Z,5.87
2019-03-19T15:46:32.397Z,4.27
2019-03-19T15:49:03.604Z,4.47
2019-03-19T15:51:34.533Z,4.37
2019-03-19T15:54:05.607Z,4.57
2019-03-19T15:56:36.826Z,5.40
2019-03-19T15:59:07.805Z,5.33
2019-03-19T16:01:40.638Z,5.13
2019-03-19T16:04:11.882Z,6.00
2019-03-19T16:06:42.866Z,5.70
2019-03-19T16:09:14.029Z,8.77
2019-03-19T16:11:45.224Z,6.50
2019-03-19T16:14:16.437Z,5.40
2019-03-19T16:16:47.479Z,5.53
2019-03-19T16:19:18.703Z,5.67
2019-03-19T16:21:49.903Z,4.67
2019-03-19T16:24:21.112Z,4.50
2019-03-19T16:26:52.063Z,6.37
2019-03-19T16:29:29.363Z,5.70
2019-03-19T16:32:08.192Z,6.37
2019-03-19T16:34:48.409Z,6.63
2019-03-19T16:37:31.704Z,5.80
2019-03-19T16:40:45.194Z,7.10
2019-03-19T16:43:47.115Z,6.23
2019-03-19T16:46:36.370Z,5.83
2019-03-19T16:49:31.799Z,5.23
2019-03-19T16:52:06.781Z,5.57
2019-03-19T16:54:40.221Z,5.50
2019-03-19T16:57:15.344Z,8.00
2019-03-19T16:59:46.553Z,7.47
2019-03-19T17:02:17.798Z,7.23
2019-03-19T17:04:48.699Z,7.60
2019-03-19T17:07:20.014Z,7.63
2019-03-19T17:09:51.183Z,7.83
2019-03-19T17:12:22.284Z,7.00
2019-03-19T17:14:53.537Z,6.67
2019-03-19T17:17:24.537Z,7.10
2019-03-19T17:19:55.810Z,8.20
2019-03-19T17:22:26.770Z,8.07
2019-03-19T17:24:57.990Z,8.07
2019-03-19T17:27:29.359Z,8.40
2019-03-19T17:30:00.509Z,7.83
2019-03-19T17:32:33.468Z,8.00
2019-03-19T17:35:05.218Z,11.77
2019-03-19T17:37:36.671Z,10.30
2019-03-19T17:40:08.312Z,10.47
2019-03-19T17:42:39.438Z,11.07
2019-03-19T17:45:10.779Z,12.20
2019-03-19T17:47:42.005Z,11.60
2019-03-19T17:50:15.565Z,12.60
2019-03-19T17:52:46.726Z,11.93
2019-03-19T17:55:52.260Z,11.70
2019-03-19T17:58:23.667Z,9.33
2019-03-19T18:00:55.023Z,10.77
2019-03-19T18:03:26.319Z,10.07
2019-03-19T18:05:57.478Z,10.77
2019-03-19T18:08:28.696Z,11.00
2019-03-19T18:10:59.752Z,11.20
2019-03-19T18:13:30.986Z,11.13
2019-03-19T18:16:02.156Z,12.47
2019-03-19T18:18:33.505Z,13.20
2019-03-19T18:21:06.061Z,13.00
2019-03-19T18:23:37.367Z,14.63
2019-03-19T18:26:08.413Z,16.77
2019-03-19T18:28:41.443Z,20.57
2019-03-19T18:31:12.349Z,20.27
2019-03-19T18:33:43.693Z,16.17
2019-03-19T18:36:14.894Z,16.37
2019-03-19T18:38:46.091Z,14.17
2019-03-19T18:41:17.478Z,14.23
2019-03-19T18:43:48.789Z,14.60
2019-03-19T18:46:20.293Z,11.13
2019-03-19T18:48:51.610Z,11.50
2019-03-19T18:51:22.737Z,13.10
2019-03-19T18:53:53.974Z,12.43
2019-03-19T18:56:25.028Z,11.27
2019-03-19T18:58:56.018Z,9.83
2019-03-19T19:01:27.516Z,10.30
2019-03-19T19:03:58.922Z,10.10
2019-03-19T19:06:29.973Z,9.77
2019-03-19T19:09:01.196Z,9.20
2019-03-19T19:11:34.012Z,8.30
2019-03-19T19:14:05.277Z,8.77
2019-03-19T19:16:36.329Z,7.83
2019-03-19T19:19:15.316Z,8.20
2019-03-19T19:22:28.676Z,10.10
2019-03-19T19:25:35.805Z,10.27
2019-03-19T19:28:18.928Z,10.80
2019-03-19T19:30:51.054Z,10.60
2019-03-19T19:33:21.977Z,12.23
2019-03-19T19:35:53.420Z,11.10
2019-03-19T19:38:24.445Z,9.63
2019-03-19T19:40:55.412Z,8.50
2019-03-19T19:43:26.436Z,9.50
2019-03-19T19:45:57.612Z,10.27
2019-03-19T19:48:28.656Z,9.87
2019-03-19T19:50:59.974Z,10.67
2019-03-19T19:53:30.876Z,11.13
2019-03-19T19:56:01.900Z,10.63
2019-03-19T19:58:33.375Z,10.67
2019-03-19T20:01:04.495Z,10.23
2019-03-19T20:03:35.658Z,11.57
2019-03-19T20:06:07.015Z,11.20
2019-03-19T20:08:38.352Z,10.90
2019-03-19T20:11:09.740Z,10.77
2019-03-19T20:13:41.099Z,10.57
2019-03-19T20:16:12.047Z,11.67
2019-03-19T20:18:43.165Z,10.40
2019-03-19T20:21:14.406Z,11.53
2019-03-19T20:23:45.354Z,11.17
2019-03-19T20:26:16.789Z,11.37
2019-03-19T20:28:47.739Z,11.57
2019-03-19T20:31:18.963Z,11.87
2019-03-19T20:33:50.161Z,12.53
2019-03-19T20:36:21.623Z,12.27
2019-03-19T20:38:52.961Z,18.13
2019-03-19T20:41:24.306Z,17.57
2019-03-19T20:43:55.734Z,14.43
2019-03-19T20:46:26.831Z,12.27
2019-03-19T20:48:58.325Z,12.58
2019-03-19T20:51:29.334Z,12.17
2019-03-19T20:54:00.654Z,12.03
2019-03-19T20:56:31.927Z,11.65
2019-03-19T20:59:02.864Z,12.37
2019-03-19T21:01:34.286Z,11.83
2019-03-19T21:04:05.832Z,11.45
2019-03-19T21:06:37.138Z,10.58
2019-03-19T21:09:09.204Z,11.25
2019-03-19T21:11:40.599Z,12.15
2019-03-19T21:14:11.536Z,11.03
2019-03-19T21:16:42.880Z,10.82
2019-03-19T21:19:14.474Z,10.70
2019-03-19T21:21:45.893Z,11.08
2019-03-19T21:24:17.121Z,11.25
2019-03-19T21:26:48.399Z,11.53
2019-03-19T21:29:20.781Z,10.50
2019-03-19T21:31:52.061Z,10.30
2019-03-19T21:34:23.389Z,10.40
2019-03-19T21:36:55.766Z,9.40
2019-03-19T21:39:27.134Z,9.53
2019-03-19T21:41:58.812Z,8.48
2019-03-19T21:44:31.190Z,7.75
2019-03-19T21:47:02.697Z,8.00
2019-03-19T21:49:34.018Z,8.30
2019-03-19T21:52:05.519Z,7.65
2019-03-19T21:54:37.139Z,7.22
2019-03-19T21:57:08.678Z,7.78
2019-03-19T21:59:40.091Z,7.42
2019-03-19T22:02:11.339Z,6.70
2019-03-19T22:04:42.536Z,6.90
2019-03-19T22:07:13.831Z,6.95
2019-03-19T22:09:45.315Z,7.30
2019-03-19T22:12:16.603Z,6.95
2019-03-19T22:14:47.835Z,7.37
2019-03-19T22:17:19.045Z,6.37
2019-03-19T22:19:50.613Z,7.33
2019-03-19T22:22:22.322Z,6.78
2019-03-19T22:24:53.849Z,6.65
2019-03-19T22:27:25.541Z,6.42
2019-03-19T22:29:56.744Z,6.65
2019-03-19T22:32:28.024Z,7.10
2019-03-19T22:34:59.345Z,6.55
2019-03-19T22:37:30.770Z,7.22
2019-03-19T22:40:02.173Z,7.03
2019-03-19T22:42:34.056Z,7.17
2019-03-19T22:45:05.979Z,7.03
2019-03-19T22:47:37.423Z,6.80
2019-03-19T22:50:09.804Z,6.92
2019-03-19T22:52:41.078Z,6.75
2019-03-19T22:55:12.701Z,6.03
2019-03-19T22:57:44.314Z,6.20
2019-03-19T23:00:18.835Z,6.20
2019-03-19T23:02:51.605Z,5.95
2019-03-19T23:05:23.168Z,6.97
2019-03-19T23:07:54.446Z,6.33
2019-03-19T23:10:26.178Z,6.20
2019-03-19T23:12:57.567Z,6.22
2019-03-19T23:15:29.223Z,6.50
2019-03-19T23:18:00.658Z,6.15
2019-03-19T23:20:32.209Z,6.40
2019-03-19T23:23:03.507Z,5.78
2019-03-19T23:25:35.019Z,5.80
2019-03-19T23:28:07.441Z,5.92
2019-03-19T23:30:39.214Z,6.08
2019-03-19T23:33:10.619Z,5.72
2019-03-19T23:35:42.329Z,5.72
2019-03-19T23:38:13.656Z,5.97
2019-03-19T23:40:45.203Z,6.37
2019-03-19T23:43:16.488Z,5.60
2019-03-19T23:45:47.775Z,5.85
2019-03-19T23:48:19.627Z,6.20
2019-03-19T23:50:51.106Z,6.62
2019-03-19T23:53:22.877Z,6.37
2019-03-19T23:55:54.636Z,5.97
2019-03-19T23:58:26.282Z,6.50
